sensor_id;sensor_type;location;lat;lon;timestamp;pressure;altitude;pressure_sealevel;temperature;humidity
44103;BME280;29769;42.178;24.742;2023-04-27T00:01:09;99068.38;;;11.40;100.00
44103;BME280;29769;42.178;24.742;2023-04-27T00:03:55;99086.91;;;11.37;100.00
44103;BME280;29769;42.178;24.742;2023-04-27T00:06:41;99100.09;;;11.37;100.00
44103;BME280;29769;42.178;24.742;2023-04-27T00:09:26;99099.22;;;11.37;100.00
44103;BME280;29769;42.178;24.742;2023-04-27T00:12:10;99100.13;;;11.36;100.00
44103;BME280;29769;42.178;24.742;2023-04-27T00:14:55;99085.28;;;11.33;100.00
44103;BME280;29769;42.178;24.742;2023-04-27T00:17:39;99098.47;;;11.32;100.00
44103;BME280;29769;42.178;24.742;2023-04-27T00:20:24;99105.59;;;11.28;100.00
44103;BME280;29769;42.178;24.742;2023-04-27T00:23:09;99108.16;;;11.31;100.00
44103;BME280;29769;42.178;24.742;2023-04-27T00:25:54;99122.28;;;11.29;100.00
44103;BME280;29769;42.178;24.742;2023-04-27T00:28:38;99123.22;;;11.26;100.00
44103;BME280;29769;42.178;24.742;2023-04-27T00:31:23;99119.75;;;11.24;100.00
44103;BME280;29769;42.178;24.742;2023-04-27T00:34:08;99133.91;;;11.20;100.00
44103;BME280;29769;42.178;24.742;2023-04-27T00:36:52;99135.72;;;11.18;100.00
44103;BME280;29769;42.178;24.742;2023-04-27T00:39:38;99132.28;;;11.16;100.00
44103;BME280;29769;42.178;24.742;2023-04-27T00:42:23;99139.41;;;11.12;100.00
44103;BME280;29769;42.178;24.742;2023-04-27T00:45:09;99146.47;;;11.09;100.00
44103;BME280;29769;42.178;24.742;2023-04-27T00:47:54;99126.41;;;11.05;100.00
44103;BME280;29769;42.178;24.742;2023-04-27T00:50:39;99135.28;;;11.01;100.00
44103;BME280;29769;42.178;24.742;2023-04-27T00:53:23;99141.44;;;11.01;100.00
44103;BME280;29769;42.178;24.742;2023-04-27T00:56:08;99129.28;;;10.96;100.00
44103;BME280;29769;42.178;24.742;2023-04-27T00:58:53;99101.31;;;10.92;100.00
44103;BME280;29769;42.178;24.742;2023-04-27T01:01:38;99138.16;;;10.92;100.00
44103;BME280;29769;42.178;24.742;2023-04-27T01:04:23;99144.28;;;10.92;100.00
44103;BME280;29769;42.178;24.742;2023-04-27T01:07:08;99131.13;;;10.92;100.00
44103;BME280;29769;42.178;24.742;2023-04-27T01:09:53;99148.56;;;10.96;100.00
44103;BME280;29769;42.178;24.742;2023-04-27T01:12:37;99167.06;;;10.93;100.00
44103;BME280;29769;42.178;24.742;2023-04-27T01:15:23;99150.44;;;10.91;100.00
44103;BME280;29769;42.178;24.742;2023-04-27T01:18:07;99144.38;;;10.89;100.00
44103;BME280;29769;42.178;24.742;2023-04-27T01:20:52;99154.78;;;10.94;99.52
44103;BME280;29769;42.178;24.742;2023-04-27T01:23:37;99174.03;;;10.96;98.54
44103;BME280;29769;42.178;24.742;2023-04-27T01:26:22;99184.72;;;10.90;100.00
44103;BME280;29769;42.178;24.742;2023-04-27T01:29:06;99175.09;;;10.89;99.34
44103;BME280;29769;42.178;24.742;2023-04-27T01:31:51;99186.59;;;10.85;99.39
44103;BME280;29769;42.178;24.742;2023-04-27T01:34:36;99190.16;;;10.82;100.00
44103;BME280;29769;42.178;24.742;2023-04-27T01:37:20;99195.38;;;10.84;97.63
44103;BME280;29769;42.178;24.742;2023-04-27T01:40:05;99192.84;;;10.81;99.06
44103;BME280;29769;42.178;24.742;2023-04-27T01:42:49;99197.25;;;10.79;97.45
44103;BME280;29769;42.178;24.742;2023-04-27T01:45:34;99188.53;;;10.77;97.05
44103;BME280;29769;42.178;24.742;2023-04-27T01:48:18;99194.72;;;10.74;98.29
44103;BME280;29769;42.178;24.742;2023-04-27T01:51:04;99197.38;;;10.73;99.23
44103;BME280;29769;42.178;24.742;2023-04-27T01:53:48;99208.88;;;10.70;99.47
44103;BME280;29769;42.178;24.742;2023-04-27T01:56:34;99211.59;;;10.65;99.27
44103;BME280;29769;42.178;24.742;2023-04-27T01:59:19;99207.22;;;10.64;99.33
44103;BME280;29769;42.178;24.742;2023-04-27T02:02:04;99214.22;;;10.65;98.72
44103;BME280;29769;42.178;24.742;2023-04-27T02:04:48;99207.34;;;10.60;98.80
44103;BME280;29769;42.178;24.742;2023-04-27T02:07:33;99221.44;;;10.57;98.13
44103;BME280;29769;42.178;24.742;2023-04-27T02:10:17;99230.25;;;10.55;98.97
44103;BME280;29769;42.178;24.742;2023-04-27T02:13:02;99222.50;;;10.49;100.00
44103;BME280;29769;42.178;24.742;2023-04-27T02:15:47;99226.94;;;10.45;100.00
44103;BME280;29769;42.178;24.742;2023-04-27T02:18:33;99229.69;;;10.41;99.92
44103;BME280;29769;42.178;24.742;2023-04-27T02:21:19;99230.63;;;10.38;100.00
44103;BME280;29769;42.178;24.742;2023-04-27T02:24:04;99233.38;;;10.32;100.00
44103;BME280;29769;42.178;24.742;2023-04-27T02:26:49;99236.94;;;10.31;100.00
44103;BME280;29769;42.178;24.742;2023-04-27T02:29:35;99244.81;;;10.31;100.00
44103;BME280;29769;42.178;24.742;2023-04-27T02:32:21;99235.09;;;10.35;99.83
44103;BME280;29769;42.178;24.742;2023-04-27T02:35:06;99249.16;;;10.32;100.00
44103;BME280;29769;42.178;24.742;2023-04-27T02:37:52;99245.63;;;10.33;99.58
44103;BME280;29769;42.178;24.742;2023-04-27T02:40:36;99250.00;;;10.34;98.39
44103;BME280;29769;42.178;24.742;2023-04-27T02:43:23;99251.75;;;10.35;97.67
44103;BME280;29769;42.178;24.742;2023-04-27T02:46:08;99254.31;;;10.37;97.80
44103;BME280;29769;42.178;24.742;2023-04-27T02:48:53;99253.44;;;10.36;96.25
44103;BME280;29769;42.178;24.742;2023-04-27T02:51:38;99269.09;;;10.42;96.11
44103;BME280;29769;42.178;24.742;2023-04-27T02:54:23;99261.91;;;10.50;95.78
44103;BME280;29769;42.178;24.742;2023-04-27T02:57:07;99261.75;;;10.58;95.12
44103;BME280;29769;42.178;24.742;2023-04-27T02:59:52;99272.19;;;10.61;94.75
44103;BME280;29769;42.178;24.742;2023-04-27T03:02:37;99272.13;;;10.64;94.12
44103;BME280;29769;42.178;24.742;2023-04-27T03:05:24;99271.25;;;10.63;93.14
44103;BME280;29769;42.178;24.742;2023-04-27T03:08:08;99275.63;;;10.64;93.83
44103;BME280;29769;42.178;24.742;2023-04-27T03:10:53;99275.69;;;10.61;92.20
44103;BME280;29769;42.178;24.742;2023-04-27T03:13:38;99288.09;;;10.56;91.47
44103;BME280;29769;42.178;24.742;2023-04-27T03:16:26;99281.94;;;10.56;90.84
44103;BME280;29769;42.178;24.742;2023-04-27T03:19:10;99288.09;;;10.56;90.95
44103;BME280;29769;42.178;24.742;2023-04-27T03:21:55;99285.63;;;10.49;90.51
44103;BME280;29769;42.178;24.742;2023-04-27T03:24:39;99293.53;;;10.47;89.77
44103;BME280;29769;42.178;24.742;2023-04-27T03:27:24;99300.53;;;10.48;89.93
44103;BME280;29769;42.178;24.742;2023-04-27T03:30:09;99303.19;;;10.45;90.81
44103;BME280;29769;42.178;24.742;2023-04-27T03:32:54;99299.78;;;10.42;90.43
44103;BME280;29769;42.178;24.742;2023-04-27T03:35:39;99299.78;;;10.42;89.22
44103;BME280;29769;42.178;24.742;2023-04-27T03:38:24;99298.19;;;10.35;90.50
44103;BME280;29769;42.178;24.742;2023-04-27T03:41:09;99306.97;;;10.34;88.87
44103;BME280;29769;42.178;24.742;2023-04-27T03:43:54;99304.25;;;10.37;89.69
44103;BME280;29769;42.178;24.742;2023-04-27T03:46:39;99294.66;;;10.36;88.54
44103;BME280;29769;42.178;24.742;2023-04-27T03:49:23;99301.69;;;10.35;88.63
44103;BME280;29769;42.178;24.742;2023-04-27T03:52:08;99313.16;;;10.31;88.97
44103;BME280;29769;42.178;24.742;2023-04-27T03:54:53;99308.81;;;10.29;89.16
44103;BME280;29769;42.178;24.742;2023-04-27T03:57:38;99312.31;;;10.31;90.65
44103;BME280;29769;42.178;24.742;2023-04-27T04:00:23;99314.94;;;10.31;90.49
44103;BME280;29769;42.178;24.742;2023-04-27T04:03:08;99322.84;;;10.29;90.67
44103;BME280;29769;42.178;24.742;2023-04-27T04:05:52;99313.22;;;10.28;89.99
44103;BME280;29769;42.178;24.742;2023-04-27T04:08:37;99327.22;;;10.29;90.98
44103;BME280;29769;42.178;24.742;2023-04-27T04:11:22;99331.53;;;10.33;91.48
44103;BME280;29769;42.178;24.742;2023-04-27T04:14:08;99338.34;;;10.41;88.85
44103;BME280;29769;42.178;24.742;2023-04-27T04:16:52;99330.38;;;10.46;90.58
44103;BME280;29769;42.178;24.742;2023-04-27T04:19:38;99336.41;;;10.51;88.45
44103;BME280;29769;42.178;24.742;2023-04-27T04:22:23;99336.31;;;10.55;88.46
44103;BME280;29769;42.178;24.742;2023-04-27T04:25:07;99341.66;;;10.52;89.30
44103;BME280;29769;42.178;24.742;2023-04-27T04:27:52;99351.13;;;10.59;89.34
44103;BME280;29769;42.178;24.742;2023-04-27T04:30:36;99349.38;;;10.60;88.32
44103;BME280;29769;42.178;24.742;2023-04-27T04:33:21;99343.13;;;10.64;86.57
44103;BME280;29769;42.178;24.742;2023-04-27T04:36:06;99356.16;;;10.72;88.98
44103;BME280;29769;42.178;24.742;2023-04-27T04:38:52;99353.56;;;10.68;89.06
44103;BME280;29769;42.178;24.742;2023-04-27T04:41:38;99362.31;;;10.69;88.60
44103;BME280;29769;42.178;24.742;2023-04-27T04:44:25;99351.81;;;10.67;87.92
44103;BME280;29769;42.178;24.742;2023-04-27T04:47:09;99359.66;;;10.70;89.44
44103;BME280;29769;42.178;24.742;2023-04-27T04:49:55;99358.72;;;10.73;86.47
44103;BME280;29769;42.178;24.742;2023-04-27T04:52:40;99360.47;;;10.74;86.38
44103;BME280;29769;42.178;24.742;2023-04-27T04:55:25;99366.66;;;10.72;85.78
44103;BME280;29769;42.178;24.742;2023-04-27T04:58:11;99378.78;;;10.79;86.81
44103;BME280;29769;42.178;24.742;2023-04-27T05:00:55;99373.53;;;10.79;89.67
44103;BME280;29769;42.178;24.742;2023-04-27T05:03:40;99385.78;;;10.80;88.92
44103;BME280;29769;42.178;24.742;2023-04-27T05:06:24;99385.63;;;10.86;87.50
44103;BME280;29769;42.178;24.742;2023-04-27T05:09:09;99380.31;;;10.89;86.30
44103;BME280;29769;42.178;24.742;2023-04-27T05:11:54;99381.09;;;10.94;87.08
44103;BME280;29769;42.178;24.742;2023-04-27T05:14:38;99390.75;;;10.93;84.87
44103;BME280;29769;42.178;24.742;2023-04-27T05:17:23;99386.47;;;10.89;88.94
44103;BME280;29769;42.178;24.742;2023-04-27T05:20:07;99394.16;;;10.98;85.75
44103;BME280;29769;42.178;24.742;2023-04-27T05:22:53;99400.22;;;11.02;88.98
44103;BME280;29769;42.178;24.742;2023-04-27T05:25:37;99394.81;;;11.08;87.50
44103;BME280;29769;42.178;24.742;2023-04-27T05:28:24;99391.28;;;11.09;87.51
44103;BME280;29769;42.178;24.742;2023-04-27T05:31:09;99399.06;;;11.13;88.34
44103;BME280;29769;42.178;24.742;2023-04-27T05:33:53;99391.81;;;11.25;87.77
44103;BME280;29769;42.178;24.742;2023-04-27T05:36:38;99398.81;;;11.26;90.06
44103;BME280;29769;42.178;24.742;2023-04-27T05:39:24;99404.03;;;11.27;84.73
44103;BME280;29769;42.178;24.742;2023-04-27T05:42:09;99401.19;;;11.36;85.31
44103;BME280;29769;42.178;24.742;2023-04-27T05:44:54;99395.09;;;11.34;79.84
44103;BME280;29769;42.178;24.742;2023-04-27T05:47:39;99402.22;;;11.29;78.39
44103;BME280;29769;42.178;24.742;2023-04-27T05:50:23;99409.19;;;11.32;79.07
44103;BME280;29769;42.178;24.742;2023-04-27T05:53:08;99412.44;;;11.44;81.35
44103;BME280;29769;42.178;24.742;2023-04-27T05:55:53;99422.22;;;11.38;81.66
44103;BME280;29769;42.178;24.742;2023-04-27T05:58:38;99428.25;;;11.43;77.61
44103;BME280;29769;42.178;24.742;2023-04-27T06:01:22;99428.53;;;11.31;80.01
44103;BME280;29769;42.178;24.742;2023-04-27T06:04:06;99413.78;;;11.22;77.58
44103;BME280;29769;42.178;24.742;2023-04-27T06:06:51;99432.09;;;11.28;83.09
44103;BME280;29769;42.178;24.742;2023-04-27T06:09:36;99429.34;;;11.34;82.64
44103;BME280;29769;42.178;24.742;2023-04-27T06:12:20;99420.59;;;11.32;77.95
44103;BME280;29769;42.178;24.742;2023-04-27T06:15:05;99426.94;;;11.24;75.95
44103;BME280;29769;42.178;24.742;2023-04-27T06:17:52;99423.63;;;11.14;73.11
44103;BME280;29769;42.178;24.742;2023-04-27T06:20:36;99429.88;;;11.08;75.41
44103;BME280;29769;42.178;24.742;2023-04-27T06:23:21;99424.69;;;11.07;73.53
44103;BME280;29769;42.178;24.742;2023-04-27T06:26:05;99428.94;;;11.12;74.45
44103;BME280;29769;42.178;24.742;2023-04-27T06:28:50;99419.56;;;10.99;74.63
44103;BME280;29769;42.178;24.742;2023-04-27T06:31:35;99423.78;;;11.08;76.66
44103;BME280;29769;42.178;24.742;2023-04-27T06:34:20;99425.56;;;11.06;75.67
44103;BME280;29769;42.178;24.742;2023-04-27T06:37:04;99422.03;;;11.07;76.04
44103;BME280;29769;42.178;24.742;2023-04-27T06:39:49;99421.84;;;11.16;74.51
44103;BME280;29769;42.178;24.742;2023-04-27T06:42:33;99430.47;;;11.23;73.90
44103;BME280;29769;42.178;24.742;2023-04-27T06:45:18;99423.31;;;11.29;75.07
44103;BME280;29769;42.178;24.742;2023-04-27T06:48:03;99421.47;;;11.33;73.73
44103;BME280;29769;42.178;24.742;2023-04-27T06:50:48;99434.97;;;11.56;75.01
44103;BME280;29769;42.178;24.742;2023-04-27T06:53:33;99433.81;;;11.68;72.48
44103;BME280;29769;42.178;24.742;2023-04-27T06:56:17;99438.00;;;11.78;71.66
44103;BME280;29769;42.178;24.742;2023-04-27T06:59:02;99437.72;;;11.90;71.66
44103;BME280;29769;42.178;24.742;2023-04-27T07:01:46;99433.88;;;12.01;72.72
44103;BME280;29769;42.178;24.742;2023-04-27T07:04:31;99436.41;;;12.06;69.71
44103;BME280;29769;42.178;24.742;2023-04-27T07:07:16;99438.53;;;12.26;72.24
44103;BME280;29769;42.178;24.742;2023-04-27T07:10:01;99430.56;;;12.27;71.02
44103;BME280;29769;42.178;24.742;2023-04-27T07:12:47;99427.63;;;12.39;73.02
44103;BME280;29769;42.178;24.742;2023-04-27T07:15:32;99434.19;;;12.57;71.22
44103;BME280;29769;42.178;24.742;2023-04-27T07:18:17;99439.84;;;12.74;72.11
44103;BME280;29769;42.178;24.742;2023-04-27T07:21:01;99430.56;;;12.90;72.73
44103;BME280;29769;42.178;24.742;2023-04-27T07:23:46;99434.91;;;12.93;72.00
44103;BME280;29769;42.178;24.742;2023-04-27T07:26:30;99430.16;;;13.04;73.27
44103;BME280;29769;42.178;24.742;2023-04-27T07:29:15;99432.88;;;13.03;70.38
44103;BME280;29769;42.178;24.742;2023-04-27T07:32:00;99434.50;;;13.07;70.13
44103;BME280;29769;42.178;24.742;2023-04-27T07:34:45;99437.16;;;13.07;66.13
44103;BME280;29769;42.178;24.742;2023-04-27T07:37:31;99435.00;;;13.21;63.56
44103;BME280;29769;42.178;24.742;2023-04-27T07:40:16;99437.31;;;13.59;65.25
44103;BME280;29769;42.178;24.742;2023-04-27T07:43:02;99439.44;;;13.76;63.54
44103;BME280;29769;42.178;24.742;2023-04-27T07:45:47;99430.97;;;13.93;59.54
44103;BME280;29769;42.178;24.742;2023-04-27T07:48:33;99431.16;;;14.13;60.22
44103;BME280;29769;42.178;24.742;2023-04-27T07:51:17;99434.25;;;14.52;58.10
44103;BME280;29769;42.178;24.742;2023-04-27T07:54:02;99430.16;;;14.91;56.18
44103;BME280;29769;42.178;24.742;2023-04-27T07:56:47;99422.34;;;14.63;57.01
44103;BME280;29769;42.178;24.742;2023-04-27T07:59:32;99391.63;;;14.35;57.29
44103;BME280;29769;42.178;24.742;2023-04-27T08:02:16;99427.25;;;14.74;56.23
44103;BME280;29769;42.178;24.742;2023-04-27T08:05:01;99427.09;;;14.79;52.11
44103;BME280;29769;42.178;24.742;2023-04-27T08:07:46;99431.03;;;14.92;52.24
44103;BME280;29769;42.178;24.742;2023-04-27T08:10:30;99422.72;;;15.01;50.19
44103;BME280;29769;42.178;24.742;2023-04-27T08:13:15;99426.13;;;15.04;50.35
44103;BME280;29769;42.178;24.742;2023-04-27T08:16:00;99425.16;;;15.53;51.06
44103;BME280;29769;42.178;24.742;2023-04-27T08:18:44;99425.03;;;15.78;48.73
44103;BME280;29769;42.178;24.742;2023-04-27T08:21:29;99424.47;;;15.70;47.43
44103;BME280;29769;42.178;24.742;2023-04-27T08:24:14;99413.66;;;15.96;47.50
44103;BME280;29769;42.178;24.742;2023-04-27T08:26:58;99417.00;;;16.22;47.10
44103;BME280;29769;42.178;24.742;2023-04-27T08:29:44;99409.03;;;16.22;45.81
44103;BME280;29769;42.178;24.742;2023-04-27T08:32:30;99408.25;;;16.40;46.49
44103;BME280;29769;42.178;24.742;2023-04-27T08:35:15;99398.38;;;16.43;44.65
44103;BME280;29769;42.178;24.742;2023-04-27T08:38:00;99401.34;;;16.36;46.03
44103;BME280;29769;42.178;24.742;2023-04-27T08:40:44;99406.81;;;17.12;44.69
44103;BME280;29769;42.178;24.742;2023-04-27T08:43:33;99409.31;;;17.53;42.88
44103;BME280;29769;42.178;24.742;2023-04-27T08:46:19;99404.66;;;18.11;40.83
44103;BME280;29769;42.178;24.742;2023-04-27T08:49:04;99394.00;;;18.80;40.07
44103;BME280;29769;42.178;24.742;2023-04-27T08:51:50;99388.00;;;19.56;38.79
44103;BME280;29769;42.178;24.742;2023-04-27T08:54:35;99391.50;;;20.18;38.26
44103;BME280;29769;42.178;24.742;2023-04-27T08:57:19;99392.25;;;20.94;36.34
44103;BME280;29769;42.178;24.742;2023-04-27T09:00:04;99384.06;;;21.66;35.84
44103;BME280;29769;42.178;24.742;2023-04-27T09:02:56;99385.84;;;21.10;35.51
44103;BME280;29769;42.178;24.742;2023-04-27T09:05:44;99386.03;;;21.21;34.21
44103;BME280;29769;42.178;24.742;2023-04-27T09:11:36;99369.75;;;21.53;35.45
44103;BME280;29769;42.178;24.742;2023-04-27T09:14:23;99370.34;;;19.53;37.55
44103;BME280;29769;42.178;24.742;2023-04-27T09:17:08;99377.16;;;19.43;37.62
44103;BME280;29769;42.178;24.742;2023-04-27T09:20:05;99373.69;;;20.91;35.89
44103;BME280;29769;42.178;24.742;2023-04-27T09:22:56;99371.03;;;21.05;34.41
44103;BME280;29769;42.178;24.742;2023-04-27T09:25:41;99369.28;;;21.04;34.83
44103;BME280;29769;42.178;24.742;2023-04-27T09:28:26;99364.03;;;22.38;32.74
44103;BME280;29769;42.178;24.742;2023-04-27T09:31:11;99366.22;;;22.96;32.57
44103;BME280;29769;42.178;24.742;2023-04-27T09:33:56;99356.50;;;21.09;32.54
44103;BME280;29769;42.178;24.742;2023-04-27T09:36:41;99351.94;;;20.68;33.94
44103;BME280;29769;42.178;24.742;2023-04-27T09:39:26;99361.63;;;21.40;34.52
44103;BME280;29769;42.178;24.742;2023-04-27T09:42:11;99352.69;;;20.42;34.14
44103;BME280;29769;42.178;24.742;2023-04-27T09:44:56;99352.47;;;20.45;35.45
44103;BME280;29769;42.178;24.742;2023-04-27T09:47:42;99337.94;;;21.48;33.89
44103;BME280;29769;42.178;24.742;2023-04-27T09:50:27;99350.44;;;23.77;32.08
44103;BME280;29769;42.178;24.742;2023-04-27T09:53:12;99353.53;;;24.53;31.53
44103;BME280;29769;42.178;24.742;2023-04-27T09:58:48;99351.19;;;26.25;28.48
44103;BME280;29769;42.178;24.742;2023-04-27T10:01:40;99345.00;;;27.06;27.60
44103;BME280;29769;42.178;24.742;2023-04-27T10:07:11;99344.69;;;27.30;27.52
44103;BME280;29769;42.178;24.742;2023-04-27T10:09:59;99340.97;;;25.65;28.71
44103;BME280;29769;42.178;24.742;2023-04-27T10:12:54;99345.13;;;23.88;30.96
44103;BME280;29769;42.178;24.742;2023-04-27T10:15:39;99351.63;;;24.77;30.40
44103;BME280;29769;42.178;24.742;2023-04-27T10:18:24;99347.63;;;25.39;29.11
44103;BME280;29769;42.178;24.742;2023-04-27T10:21:10;99353.31;;;26.10;27.65
44103;BME280;29769;42.178;24.742;2023-04-27T10:23:55;99347.75;;;26.23;27.55
44103;BME280;29769;42.178;24.742;2023-04-27T10:26:44;99341.97;;;25.96;27.65
44103;BME280;29769;42.178;24.742;2023-04-27T10:29:33;99341.81;;;23.61;30.20
44103;BME280;29769;42.178;24.742;2023-04-27T10:32:19;99356.78;;;22.13;32.78
44103;BME280;29769;42.178;24.742;2023-04-27T10:35:04;99363.09;;;21.32;34.52
44103;BME280;29769;42.178;24.742;2023-04-27T10:37:52;99361.31;;;19.56;38.82
44103;BME280;29769;42.178;24.742;2023-04-27T10:40:55;99363.00;;;19.41;38.96
44103;BME280;29769;42.178;24.742;2023-04-27T10:43:40;99361.47;;;19.37;36.23
44103;BME280;29769;42.178;24.742;2023-04-27T10:46:25;99363.28;;;19.37;34.81
44103;BME280;29769;42.178;24.742;2023-04-27T10:49:10;99367.97;;;18.85;39.77
44103;BME280;29769;42.178;24.742;2023-04-27T10:51:58;99369.31;;;17.90;40.02
44103;BME280;29769;42.178;24.742;2023-04-27T10:54:46;99364.44;;;17.64;40.59
44103;BME280;29769;42.178;24.742;2023-04-27T10:57:30;99364.66;;;17.41;40.65
44103;BME280;29769;42.178;24.742;2023-04-27T11:00:21;99368.34;;;17.19;41.45
44103;BME280;29769;42.178;24.742;2023-04-27T11:05:58;99381.69;;;17.37;39.72
44103;BME280;29769;42.178;24.742;2023-04-27T11:08:43;99376.06;;;17.80;39.89
44103;BME280;29769;42.178;24.742;2023-04-27T11:11:29;99379.03;;;17.18;40.37
44103;BME280;29769;42.178;24.742;2023-04-27T11:14:14;99375.31;;;17.22;40.61
44103;BME280;29769;42.178;24.742;2023-04-27T11:17:03;99379.69;;;17.23;41.61
44103;BME280;29769;42.178;24.742;2023-04-27T11:19:48;99376.53;;;17.15;41.57
44103;BME280;29769;42.178;24.742;2023-04-27T11:22:33;99383.84;;;16.91;42.76
44103;BME280;29769;42.178;24.742;2023-04-27T11:25:25;99381.28;;;17.08;44.75
44103;BME280;29769;42.178;24.742;2023-04-27T11:28:20;99378.84;;;17.22;40.12
44103;BME280;29769;42.178;24.742;2023-04-27T11:31:05;99383.84;;;17.47;43.25
44103;BME280;29769;42.178;24.742;2023-04-27T11:33:50;99372.84;;;17.73;38.61
44103;BME280;29769;42.178;24.742;2023-04-27T11:36:37;99388.81;;;17.91;37.65
44103;BME280;29769;42.178;24.742;2023-04-27T11:39:22;99381.25;;;18.00;38.08
44103;BME280;29769;42.178;24.742;2023-04-27T11:42:20;99383.19;;;18.14;36.94
44103;BME280;29769;42.178;24.742;2023-04-27T11:45:05;99380.38;;;18.69;36.18
44103;BME280;29769;42.178;24.742;2023-04-27T11:47:50;99379.28;;;19.21;34.89
44103;BME280;29769;42.178;24.742;2023-04-27T11:50:35;99382.66;;;18.92;35.23
44103;BME280;29769;42.178;24.742;2023-04-27T11:53:27;99380.91;;;19.24;34.55
44103;BME280;29769;42.178;24.742;2023-04-27T11:56:12;99374.22;;;19.79;33.36
44103;BME280;29769;42.178;24.742;2023-04-27T11:58:57;99369.47;;;20.14;32.33
44103;BME280;29769;42.178;24.742;2023-04-27T12:01:41;99373.00;;;20.30;32.87
44103;BME280;29769;42.178;24.742;2023-04-27T12:04:27;99370.56;;;20.70;32.13
44103;BME280;29769;42.178;24.742;2023-04-27T12:07:12;99371.09;;;21.03;31.86
44103;BME280;29769;42.178;24.742;2023-04-27T12:09:57;99373.72;;;21.60;31.39
44103;BME280;29769;42.178;24.742;2023-04-27T12:12:41;99380.28;;;21.42;30.49
44103;BME280;29769;42.178;24.742;2023-04-27T12:15:26;99368.34;;;19.41;31.59
44103;BME280;29769;42.178;24.742;2023-04-27T12:18:10;99380.41;;;19.33;32.87
44103;BME280;29769;42.178;24.742;2023-04-27T12:20:54;99369.72;;;18.51;33.79
44103;BME280;29769;42.178;24.742;2023-04-27T12:23:39;99377.50;;;18.89;34.62
44103;BME280;29769;42.178;24.742;2023-04-27T12:26:24;99374.31;;;18.82;34.24
44103;BME280;29769;42.178;24.742;2023-04-27T12:29:09;99357.94;;;19.37;33.57
44103;BME280;29769;42.178;24.742;2023-04-27T12:31:54;99374.81;;;19.37;33.25
44103;BME280;29769;42.178;24.742;2023-04-27T12:34:39;99373.88;;;19.99;32.58
44103;BME280;29769;42.178;24.742;2023-04-27T12:37:23;99380.72;;;20.49;31.49
44103;BME280;29769;42.178;24.742;2023-04-27T12:40:08;99366.94;;;21.95;30.52
44103;BME280;29769;42.178;24.742;2023-04-27T12:42:53;99367.31;;;23.79;27.73
44103;BME280;29769;42.178;24.742;2023-04-27T12:45:38;99364.78;;;25.15;26.56
44103;BME280;29769;42.178;24.742;2023-04-27T12:48:23;99366.84;;;26.93;26.17
44103;BME280;29769;42.178;24.742;2023-04-27T12:51:07;99358.09;;;28.29;24.37
44103;BME280;29769;42.178;24.742;2023-04-27T12:53:52;99364.41;;;29.59;23.10
44103;BME280;29769;42.178;24.742;2023-04-27T12:56:36;99355.38;;;30.39;21.73
44103;BME280;29769;42.178;24.742;2023-04-27T12:59:21;99358.94;;;31.35;21.58
44103;BME280;29769;42.178;24.742;2023-04-27T13:02:05;99354.06;;;31.13;20.49
44103;BME280;29769;42.178;24.742;2023-04-27T13:04:50;99358.50;;;30.88;21.28
44103;BME280;29769;42.178;24.742;2023-04-27T13:07:36;99358.16;;;29.77;21.29
44103;BME280;29769;42.178;24.742;2023-04-27T13:10:21;99362.56;;;28.86;22.15
44103;BME280;29769;42.178;24.742;2023-04-27T13:13:05;99355.25;;;28.21;22.65
44103;BME280;29769;42.178;24.742;2023-04-27T13:15:51;99357.31;;;27.79;23.03
44103;BME280;29769;42.178;24.742;2023-04-27T13:18:35;99370.13;;;27.37;22.76
44103;BME280;29769;42.178;24.742;2023-04-27T13:21:20;99364.59;;;27.88;22.35
44103;BME280;29769;42.178;24.742;2023-04-27T13:24:05;99359.97;;;27.50;22.78
44103;BME280;29769;42.178;24.742;2023-04-27T13:26:50;99364.34;;;26.60;23.49
44103;BME280;29769;42.178;24.742;2023-04-27T13:29:35;99366.97;;;25.98;23.68
44103;BME280;29769;42.178;24.742;2023-04-27T13:32:20;99359.97;;;25.52;24.41
44103;BME280;29769;42.178;24.742;2023-04-27T13:35:05;99369.78;;;25.20;24.27
44103;BME280;29769;42.178;24.742;2023-04-27T13:37:51;99381.28;;;24.54;25.08
44103;BME280;29769;42.178;24.742;2023-04-27T13:40:37;99373.00;;;24.22;25.61
44103;BME280;29769;42.178;24.742;2023-04-27T13:43:21;99382.88;;;23.50;26.01
44103;BME280;29769;42.178;24.742;2023-04-27T13:46:06;99375.34;;;22.93;26.02
44103;BME280;29769;42.178;24.742;2023-04-27T13:48:51;99388.41;;;22.85;25.98
44103;BME280;29769;42.178;24.742;2023-04-27T13:51:35;99377.44;;;23.14;26.42
44103;BME280;29769;42.178;24.742;2023-04-27T13:54:20;99373.56;;;24.14;25.34
44103;BME280;29769;42.178;24.742;2023-04-27T13:57:05;99372.81;;;24.36;25.06
44103;BME280;29769;42.178;24.742;2023-04-27T13:59:49;99370.44;;;23.97;24.85
44103;BME280;29769;42.178;24.742;2023-04-27T14:02:34;99383.22;;;23.45;25.48
44103;BME280;29769;42.178;24.742;2023-04-27T14:05:19;99384.31;;;23.30;26.18
44103;BME280;29769;42.178;24.742;2023-04-27T14:08:04;99381.75;;;23.03;27.01
44103;BME280;29769;42.178;24.742;2023-04-27T14:10:48;99382.31;;;22.18;28.31
44103;BME280;29769;42.178;24.742;2023-04-27T14:13:33;99389.06;;;21.85;28.53
44103;BME280;29769;42.178;24.742;2023-04-27T14:16:18;99386.81;;;22.95;28.39
44103;BME280;29769;42.178;24.742;2023-04-27T14:19:02;99395.34;;;23.99;27.03
44103;BME280;29769;42.178;24.742;2023-04-27T14:21:48;99388.34;;;24.90;26.48
44103;BME280;29769;42.178;24.742;2023-04-27T14:24:33;99387.94;;;24.72;28.73
44103;BME280;29769;42.178;24.742;2023-04-27T14:27:17;99392.16;;;24.17;30.25
44103;BME280;29769;42.178;24.742;2023-04-27T14:30:02;99388.84;;;23.66;32.19
44103;BME280;29769;42.178;24.742;2023-04-27T14:32:47;99396.72;;;24.04;30.83